createdAt,value
2019-02-27T00:01:01.411Z,98261.46
2019-02-27T00:03:30.484Z,98257.92
2019-02-27T00:05:59.650Z,98255.92
2019-02-27T00:08:28.694Z,98246.19
2019-02-27T00:10:57.793Z,98253.36
2019-02-27T00:13:26.871Z,98251.45
2019-02-27T00:15:55.969Z,98249.28
2019-02-27T00:18:25.043Z,98240.83
2019-02-27T00:20:54.136Z,98238.11
2019-02-27T00:23:24.203Z,98232.19
2019-02-27T00:25:53.681Z,98227.28
2019-02-27T00:28:23.357Z,98231.95
2019-02-27T00:30:53.042Z,98227.13
2019-02-27T00:33:25.040Z,98222.39
2019-02-27T00:35:52.938Z,98226.45
2019-02-27T00:38:22.755Z,98217.32
2019-02-27T00:40:52.856Z,98209.14
2019-02-27T00:43:21.932Z,98203.44
2019-02-27T00:45:51.030Z,98211.41
2019-02-27T00:48:20.101Z,98210.64
2019-02-27T00:50:49.207Z,98206.11
2019-02-27T00:53:18.279Z,98205.05
2019-02-27T00:55:47.369Z,98207.05
2019-02-27T00:58:16.448Z,98200.73
2019-02-27T01:00:45.545Z,98195.69
2019-02-27T01:03:14.622Z,98197.47
2019-02-27T01:05:43.926Z,98196.20
2019-02-27T01:08:13.025Z,98189.63
2019-02-27T01:10:42.847Z,98189.73
2019-02-27T01:13:12.922Z,98188.52
2019-02-27T01:15:44.686Z,98189.00
2019-02-27T01:18:12.813Z,98187.49
2019-02-27T01:20:45.546Z,98183.08
2019-02-27T01:23:12.703Z,98192.61
2019-02-27T01:25:41.778Z,98192.69
2019-02-27T01:28:11.611Z,98188.38
2019-02-27T01:30:40.756Z,98193.41
2019-02-27T01:33:09.824Z,98187.09
2019-02-27T01:35:38.903Z,98185.48
2019-02-27T01:38:08.001Z,98183.50
2019-02-27T01:40:37.079Z,98184.11
2019-02-27T01:43:06.496Z,98177.53
2019-02-27T01:45:35.807Z,98180.89
2019-02-27T01:48:08.926Z,98172.64
2019-02-27T01:50:38.868Z,98173.27
2019-02-27T01:53:09.120Z,98172.44
2019-02-27T01:55:39.481Z,98168.66
2019-02-27T01:58:09.583Z,98168.54
2019-02-27T02:00:39.343Z,98163.33
2019-02-27T02:03:08.433Z,98153.34
2019-02-27T02:05:37.526Z,98157.03
2019-02-27T02:08:13.488Z,98150.69
2019-02-27T02:10:39.407Z,98142.45
2019-02-27T02:13:20.936Z,98143.98
2019-02-27T02:16:12.739Z,98131.43
2019-02-27T02:19:10.657Z,98135.16
2019-02-27T02:22:17.267Z,98128.06
2019-02-27T02:25:34.926Z,98126.70
2019-02-27T02:28:21.894Z,98125.03
2019-02-27T02:31:24.374Z,98118.55
2019-02-27T02:34:33.417Z,98113.05
2019-02-27T02:37:53.277Z,98112.47
2019-02-27T02:40:33.635Z,98123.44
2019-02-27T02:43:29.286Z,98118.06
2019-02-27T02:46:08.517Z,98118.80
2019-02-27T02:49:15.355Z,98103.23
2019-02-27T02:52:19.130Z,98105.52
2019-02-27T02:55:03.867Z,98105.67
2019-02-27T02:58:12.217Z,98095.62
2019-02-27T03:01:21.181Z,98105.93
2019-02-27T03:04:29.979Z,98097.44
2019-02-27T03:07:45.655Z,98088.66
2019-02-27T03:10:32.441Z,98082.33
2019-02-27T03:13:41.952Z,98085.06
2019-02-27T03:16:58.245Z,98086.89
2019-02-27T03:19:45.076Z,98086.84
2019-02-27T03:22:43.234Z,98073.76
2019-02-27T03:25:25.486Z,98066.60
2019-02-27T03:28:40.922Z,98076.61
2019-02-27T03:31:43.511Z,98070.66
2019-02-27T03:35:05.312Z,98066.39
2019-02-27T03:38:06.075Z,98063.37
2019-02-27T03:41:13.805Z,98062.34
2019-02-27T03:44:25.703Z,98048.64
2019-02-27T03:47:34.616Z,98053.15
2019-02-27T03:50:24.454Z,98053.15
2019-02-27T03:53:23.813Z,98052.20
2019-02-27T03:56:21.939Z,98048.99
2019-02-27T03:59:26.481Z,98049.16
2019-02-27T04:02:42.023Z,98044.23
2019-02-27T04:05:26.238Z,98049.35
2019-02-27T04:08:51.010Z,98049.22
2019-02-27T04:11:20.108Z,98042.11
2019-02-27T04:13:49.184Z,98045.52
2019-02-27T04:16:18.283Z,98041.08
2019-02-27T04:18:47.369Z,98046.05
2019-02-27T04:21:16.550Z,98043.77
2019-02-27T04:23:48.985Z,98041.09
2019-02-27T04:26:19.208Z,98048.99
2019-02-27T04:28:47.331Z,98047.34
2019-02-27T04:31:16.448Z,98043.00
2019-02-27T04:33:45.520Z,98043.03
2019-02-27T04:36:14.634Z,98049.36
2019-02-27T04:38:43.712Z,98046.41
2019-02-27T04:41:13.132Z,98045.68
2019-02-27T04:43:42.212Z,98044.16
2019-02-27T04:46:11.310Z,98044.09
2019-02-27T04:48:40.386Z,98044.86
2019-02-27T04:51:09.476Z,98042.94
2019-02-27T04:53:40.649Z,98040.75
2019-02-27T04:56:09.400Z,98039.76
2019-02-27T04:58:42.800Z,98040.59
2019-02-27T05:01:09.306Z,98041.41
2019-02-27T05:03:38.381Z,98045.45
2019-02-27T05:06:07.504Z,98042.86
2019-02-27T05:08:36.574Z,98042.86
2019-02-27T05:11:05.678Z,98040.38
2019-02-27T05:13:34.754Z,98045.43
2019-02-27T05:16:03.856Z,98042.62
2019-02-27T05:18:32.929Z,98036.28
2019-02-27T05:21:02.215Z,98042.81
2019-02-27T05:23:33.538Z,98038.37
2019-02-27T05:26:02.095Z,98043.33
2019-02-27T05:28:32.110Z,98043.71
2019-02-27T05:31:02.026Z,98044.72
2019-02-27T05:33:35.699Z,98042.73
2019-02-27T05:36:02.005Z,98040.58
2019-02-27T05:38:31.114Z,98036.94
2019-02-27T05:41:00.631Z,98034.27
2019-02-27T05:43:29.662Z,98041.66
2019-02-27T05:46:02.776Z,98042.29
2019-02-27T05:48:29.557Z,98038.67
2019-02-27T05:50:58.637Z,98039.08
2019-02-27T05:53:27.734Z,98037.08
2019-02-27T05:55:58.486Z,98036.10
2019-02-27T05:58:27.681Z,98027.02
2019-02-27T06:00:56.752Z,98026.82
2019-02-27T06:03:25.850Z,98023.38
2019-02-27T06:05:54.969Z,98017.95
2019-02-27T06:08:24.097Z,98017.66
2019-02-27T06:10:56.047Z,98017.63
2019-02-27T06:13:24.020Z,98004.91
2019-02-27T06:15:53.108Z,98008.38
2019-02-27T06:18:23.398Z,98002.27
2019-02-27T06:20:52.753Z,98000.05
2019-02-27T06:23:21.851Z,98001.04
2019-02-27T06:25:50.934Z,98001.72
2019-02-27T06:28:20.042Z,97996.82
2019-02-27T06:30:49.126Z,97990.41
2019-02-27T06:33:18.227Z,97989.34
2019-02-27T06:35:49.335Z,97982.90
2019-02-27T06:38:18.145Z,97986.01
2019-02-27T06:40:47.217Z,97982.92
2019-02-27T06:43:16.312Z,97978.29
2019-02-27T06:45:46.557Z,97977.58
2019-02-27T06:48:15.760Z,97976.54
2019-02-27T06:50:44.838Z,97978.70
2019-02-27T06:53:16.474Z,97978.53
2019-02-27T06:55:44.740Z,97979.27
2019-02-27T06:58:14.818Z,97974.34
2019-02-27T07:00:44.493Z,97978.48
2019-02-27T07:03:13.576Z,97974.33
2019-02-27T07:05:42.672Z,97971.86
2019-02-27T07:08:11.767Z,97978.64
2019-02-27T07:10:40.878Z,97980.47
2019-02-27T07:13:09.955Z,97973.58
2019-02-27T07:15:39.058Z,97982.41
2019-02-27T07:18:08.141Z,97982.47
2019-02-27T07:20:37.241Z,97982.05
2019-02-27T07:23:06.318Z,97981.08
2019-02-27T07:25:35.423Z,97984.69
2019-02-27T07:28:08.411Z,97984.38
2019-02-27T07:30:35.317Z,97971.17
2019-02-27T07:33:06.758Z,97960.36
2019-02-27T07:35:35.217Z,97941.95
2019-02-27T07:38:04.307Z,97951.33
2019-02-27T07:40:33.419Z,97960.50
2019-02-27T07:43:03.358Z,97965.59
2019-02-27T07:45:33.327Z,97965.59
2019-02-27T07:48:02.405Z,97967.14
2019-02-27T07:50:32.576Z,97967.03
2019-02-27T07:53:01.777Z,97971.07
2019-02-27T07:55:30.884Z,97963.05
2019-02-27T07:57:59.962Z,97958.79
2019-02-27T08:00:29.070Z,97958.45
2019-02-27T08:02:58.155Z,97969.27
2019-02-27T08:05:29.066Z,97961.56
2019-02-27T08:07:58.254Z,97963.20
2019-02-27T08:10:27.360Z,97963.20
2019-02-27T08:12:56.817Z,97958.67
2019-02-27T08:15:25.928Z,97954.30
2019-02-27T08:17:57.806Z,97952.03
2019-02-27T08:20:25.826Z,97948.53
2019-02-27T08:22:54.906Z,97941.86
2019-02-27T08:25:24.003Z,97940.66
2019-02-27T08:27:54.249Z,97940.94
2019-02-27T08:30:23.488Z,97941.47
2019-02-27T08:32:52.571Z,97937.62
2019-02-27T08:35:21.660Z,97928.14
2019-02-27T08:37:50.768Z,97932.22
2019-02-27T08:40:24.354Z,97933.48
2019-02-27T08:42:50.681Z,97927.66
2019-02-27T08:45:20.571Z,97929.76
2019-02-27T08:47:49.858Z,97935.10
2019-02-27T08:50:18.946Z,97928.58
2019-02-27T08:52:51.549Z,97925.19
2019-02-27T08:55:22.074Z,97928.19
2019-02-27T08:57:50.084Z,97927.37
2019-02-27T09:02:52.702Z,97911.94
2019-02-27T09:05:21.827Z,97908.38
2019-02-27T09:07:50.954Z,97903.53
2019-02-27T09:10:20.080Z,97903.40
2019-02-27T09:12:51.667Z,97901.69
2019-02-27T09:15:20.094Z,97903.75
2019-02-27T09:17:49.197Z,97908.42
2019-02-27T09:20:19.797Z,97905.28
2019-02-27T09:22:49.158Z,97907.09
2019-02-27T09:25:23.409Z,97900.58
2019-02-27T09:27:49.159Z,97896.08
2019-02-27T09:30:18.376Z,97891.73
2019-02-27T09:32:47.481Z,97890.23
2019-02-27T09:35:16.561Z,97895.20
2019-02-27T09:37:48.245Z,97893.78
2019-02-27T09:40:17.682Z,97887.88
2019-02-27T09:42:46.784Z,97886.38
2019-02-27T09:45:27.202Z,97884.28
2019-02-27T09:47:59.504Z,97875.37
2019-02-27T09:50:34.862Z,97870.06
2019-02-27T09:53:04.455Z,97872.45
2019-02-27T09:55:33.531Z,97874.05
2019-02-27T09:58:02.649Z,97867.03
2019-02-27T10:00:36.182Z,97871.12
2019-02-27T10:03:05.388Z,97869.38
2019-02-27T10:05:36.761Z,97863.94
2019-02-27T10:08:07.500Z,97865.72
2019-02-27T10:10:36.554Z,97864.25
2019-02-27T10:13:05.658Z,97868.17
2019-02-27T10:15:34.733Z,97868.59
2019-02-27T10:18:03.844Z,97871.55
2019-02-27T10:20:37.022Z,97866.15
2019-02-27T10:23:03.767Z,97866.84
2019-02-27T10:25:32.843Z,97861.57
2019-02-27T10:28:04.330Z,97853.58
2019-02-27T10:30:32.763Z,97843.64
2019-02-27T10:33:03.406Z,97847.79
2019-02-27T10:35:34.705Z,97841.57
2019-02-27T10:38:03.571Z,97847.17
2019-02-27T10:40:32.646Z,97838.62
2019-02-27T10:43:01.734Z,97831.37
2019-02-27T10:45:30.838Z,97831.08
2019-02-27T10:47:59.920Z,97827.84
2019-02-27T10:50:29.030Z,97825.05
2019-02-27T10:52:58.110Z,97825.66
2019-02-27T10:55:27.293Z,97826.69
2019-02-27T10:57:56.397Z,97824.11
2019-02-27T11:00:32.385Z,97820.66
2019-02-27T11:03:01.493Z,97816.08
2019-02-27T11:05:31.336Z,97813.52
2019-02-27T11:08:00.436Z,97817.17
2019-02-27T11:10:29.531Z,97804.22
2019-02-27T11:12:58.607Z,97803.94
2019-02-27T11:15:27.706Z,97803.94
2019-02-27T11:17:56.808Z,97807.20
2019-02-27T11:20:25.904Z,97797.56
2019-02-27T11:22:54.973Z,97791.37
2019-02-27T11:25:24.234Z,97790.73
2019-02-27T11:27:53.325Z,97781.92
2019-02-27T11:30:27.730Z,97782.17
2019-02-27T11:32:57.856Z,97780.06
2019-02-27T11:35:27.090Z,97776.45
2019-02-27T11:37:56.166Z,97775.23
2019-02-27T11:40:25.285Z,97780.80
2019-02-27T11:42:54.370Z,97768.84
2019-02-27T11:45:24.669Z,97761.84
2019-02-27T11:47:53.920Z,97758.22
2019-02-27T11:50:23.029Z,97749.27
2019-02-27T11:52:52.380Z,97749.70
2019-02-27T11:55:21.602Z,97740.03
2019-02-27T11:57:50.700Z,97729.03
2019-02-27T12:00:26.119Z,97727.05
2019-02-27T12:02:55.231Z,97722.41
2019-02-27T12:05:24.332Z,97713.11
2019-02-27T12:07:53.446Z,97713.97
2019-02-27T12:10:23.983Z,97707.41
2019-02-27T12:12:53.077Z,97702.80
2019-02-27T12:15:22.276Z,97705.48
2019-02-27T12:17:51.382Z,97705.08
2019-02-27T12:20:21.435Z,97695.34
2019-02-27T12:22:50.541Z,97692.66
2019-02-27T12:25:20.192Z,97683.20
2019-02-27T12:27:51.997Z,97687.27
2019-02-27T12:30:21.174Z,97678.19
2019-02-27T12:32:50.286Z,97679.75
2019-02-27T12:35:27.428Z,97673.27
2019-02-27T12:37:56.523Z,97673.44
2019-02-27T12:40:25.602Z,97668.26
2019-02-27T12:42:54.739Z,97665.99
2019-02-27T12:45:25.833Z,97658.70
2019-02-27T12:47:55.650Z,97656.67
2019-02-27T12:50:26.877Z,97648.78
2019-02-27T12:52:55.777Z,97647.74
2019-02-27T12:55:25.163Z,97641.39
2019-02-27T12:57:54.254Z,97638.15
2019-02-27T13:00:25.511Z,97640.64
2019-02-27T13:02:54.610Z,97632.66
2019-02-27T13:05:26.421Z,97632.92
2019-02-27T13:07:54.535Z,97628.02
2019-02-27T13:10:23.643Z,97629.23
2019-02-27T13:12:52.741Z,97629.52
2019-02-27T13:15:22.524Z,97627.18
2019-02-27T13:17:56.160Z,97620.56
2019-02-27T13:20:23.870Z,97615.17
2019-02-27T13:22:53.003Z,97607.36
2019-02-27T13:25:24.238Z,97605.10
2019-02-27T13:27:53.212Z,97597.50
2019-02-27T13:30:22.409Z,97595.20
2019-02-27T13:32:51.511Z,97595.50
2019-02-27T13:35:23.251Z,97588.08
2019-02-27T13:37:51.601Z,97588.30
2019-02-27T13:40:20.808Z,97577.52
2019-02-27T13:42:52.375Z,97579.80
2019-02-27T13:45:22.406Z,97573.68
2019-02-27T13:47:51.506Z,97566.44
2019-02-27T13:50:24.445Z,97564.85
2019-02-27T13:52:51.418Z,97565.78
2019-02-27T13:55:20.819Z,97568.23
2019-02-27T13:57:49.919Z,97556.92
2019-02-27T14:00:21.689Z,97550.85
2019-02-27T14:02:50.788Z,97554.53
2019-02-27T14:05:19.861Z,97552.48
2019-02-27T14:07:48.965Z,97544.84
2019-02-27T14:10:20.586Z,97545.15
2019-02-27T14:12:48.939Z,97538.31
2019-02-27T14:15:18.131Z,97539.45
2019-02-27T14:17:47.212Z,97540.64
2019-02-27T14:20:17.714Z,97534.47
2019-02-27T14:22:46.898Z,97526.39
2019-02-27T14:25:18.010Z,97522.14
2019-02-27T14:27:48.089Z,97528.92
2019-02-27T14:30:19.465Z,97529.31
2019-02-27T14:32:48.547Z,97518.59
2019-02-27T14:35:17.661Z,97516.25
2019-02-27T14:37:49.789Z,97514.59
2019-02-27T14:40:18.717Z,97509.33
2019-02-27T14:42:47.808Z,97507.80
2019-02-27T14:45:18.447Z,97497.66
2019-02-27T14:47:48.055Z,97500.24
2019-02-27T14:50:18.430Z,97506.23
2019-02-27T14:52:47.510Z,97495.13
2019-02-27T14:55:16.742Z,97491.41
2019-02-27T14:57:50.150Z,97485.42
2019-02-27T15:00:27.872Z,97479.41
2019-02-27T15:02:56.984Z,97481.39
2019-02-27T15:05:26.087Z,97474.99
2019-02-27T15:07:55.185Z,97475.69
2019-02-27T15:10:24.517Z,97471.16
2019-02-27T15:12:55.144Z,97457.20
2019-02-27T15:15:26.130Z,97465.05
2019-02-27T15:17:55.294Z,97456.98
2019-02-27T15:20:25.691Z,97452.47
2019-02-27T15:22:54.776Z,97453.58
2019-02-27T15:25:24.004Z,97446.64
2019-02-27T15:27:53.098Z,97444.62
2019-02-27T15:30:25.286Z,97438.36
2019-02-27T15:32:54.374Z,97444.55
2019-02-27T15:35:23.478Z,97434.19
2019-02-27T15:37:52.767Z,97436.93
2019-02-27T15:40:23.111Z,97423.79
2019-02-27T15:42:52.231Z,97422.60
2019-02-27T15:45:21.613Z,97415.97
2019-02-27T15:47:50.772Z,97413.75
2019-02-27T15:50:22.882Z,97414.36
2019-02-27T15:52:51.546Z,97416.25
2019-02-27T15:55:20.627Z,97418.09
2019-02-27T15:57:53.546Z,97415.84
2019-02-27T16:00:21.782Z,97413.25
2019-02-27T16:02:50.901Z,97412.27
2019-02-27T16:05:19.993Z,97412.08
2019-02-27T16:07:49.774Z,97406.07
2019-02-27T16:10:20.355Z,97407.26
2019-02-27T16:12:49.444Z,97404.63
2019-02-27T16:15:18.841Z,97405.46
2019-02-27T16:17:47.990Z,97394.06
2019-02-27T16:20:17.682Z,97392.51
2019-02-27T16:22:46.794Z,97390.27
2019-02-27T16:25:19.887Z,97398.33
2019-02-27T16:27:48.428Z,97396.73
2019-02-27T16:30:23.071Z,97389.68
2019-02-27T16:32:52.173Z,97390.46
2019-02-27T16:35:22.677Z,97390.88
2019-02-27T16:37:56.340Z,97388.05
2019-02-27T16:40:22.624Z,97397.36
2019-02-27T16:42:51.729Z,97388.02
2019-02-27T16:45:23.065Z,97388.82
2019-02-27T16:47:54.059Z,97391.48
2019-02-27T16:50:24.697Z,97387.09
2019-02-27T16:52:54.681Z,97378.79
2019-02-27T16:55:24.205Z,97389.86
2019-02-27T16:57:56.565Z,97389.05
2019-02-27T17:00:26.025Z,97385.79
2019-02-27T17:02:56.967Z,97381.59
2019-02-27T17:05:27.429Z,97384.39
2019-02-27T17:08:00.375Z,97374.64
2019-02-27T17:10:29.517Z,97382.21
2019-02-27T17:12:58.855Z,97385.98
2019-02-27T17:15:34.581Z,97380.26
2019-02-27T17:18:00.165Z,97383.03
2019-02-27T17:20:29.358Z,97385.96
2019-02-27T17:22:58.451Z,97384.52
2019-02-27T17:25:29.983Z,97384.79
2019-02-27T17:27:58.459Z,97386.94
2019-02-27T17:30:36.651Z,97385.67
2019-02-27T17:33:04.266Z,97389.03
2019-02-27T17:35:33.128Z,97395.95
2019-02-27T17:38:02.316Z,97391.38
2019-02-27T17:40:36.624Z,97390.44
2019-02-27T17:43:02.925Z,97387.43
2019-02-27T17:45:32.054Z,97386.97
2019-02-27T17:48:01.128Z,97387.25
2019-02-27T17:50:31.830Z,97383.11
2019-02-27T17:53:01.059Z,97388.76
2019-02-27T17:55:30.166Z,97382.05
2019-02-27T17:57:59.333Z,97384.09
2019-02-27T18:00:40.508Z,97382.05
2019-02-27T18:03:09.590Z,97377.88
2019-02-27T18:05:39.036Z,97378.87
2019-02-27T18:08:08.143Z,97373.17
2019-02-27T18:10:38.261Z,97374.98
2019-02-27T18:13:07.410Z,97375.20
2019-02-27T18:15:36.605Z,97371.10
2019-02-27T18:18:07.565Z,97372.85
2019-02-27T18:20:36.623Z,97364.80
2019-02-27T18:23:05.715Z,97357.18
2019-02-27T18:25:34.824Z,97364.58
2019-02-27T18:28:03.914Z,97361.63
2019-02-27T18:30:33.016Z,97357.56
2019-02-27T18:33:02.112Z,97355.47
2019-02-27T18:35:31.225Z,97348.39
2019-02-27T18:38:00.302Z,97352.38
2019-02-27T18:40:29.416Z,97350.03
2019-02-27T18:42:58.515Z,97355.13
2019-02-27T18:45:27.698Z,97348.97
2019-02-27T18:47:58.712Z,97338.03
2019-02-27T18:50:27.615Z,97336.34
2019-02-27T18:52:56.707Z,97332.98
2019-02-27T18:55:30.707Z,97330.92
2019-02-27T18:57:58.030Z,97332.48
2019-02-27T19:00:28.528Z,97329.55
2019-02-27T19:02:57.653Z,97324.90
2019-02-27T19:05:27.851Z,97328.65
2019-02-27T19:07:56.978Z,97323.83
2019-02-27T19:10:26.066Z,97317.59
2019-02-27T19:12:55.172Z,97316.16
2019-02-27T19:15:24.405Z,97316.30
2019-02-27T19:17:53.802Z,97314.09
2019-02-27T19:20:25.277Z,97310.30
2019-02-27T19:22:54.410Z,97304.25
2019-02-27T19:25:23.485Z,97306.42
2019-02-27T19:27:52.688Z,97306.62
2019-02-27T19:30:21.968Z,97307.36
2019-02-27T19:32:51.161Z,97296.76
2019-02-27T19:35:22.347Z,97300.38
2019-02-27T19:37:51.861Z,97300.15
2019-02-27T19:40:20.993Z,97297.86
2019-02-27T19:42:58.550Z,97293.05
2019-02-27T19:45:28.351Z,97287.25
2019-02-27T19:47:57.628Z,97286.16
2019-02-27T19:50:27.615Z,97283.91
2019-02-27T19:52:57.236Z,97284.28
2019-02-27T19:55:27.631Z,97286.58
2019-02-27T19:57:56.928Z,97284.38
2019-02-27T20:00:27.164Z,97282.94
2019-02-27T20:03:01.137Z,97282.45
2019-02-27T20:05:28.265Z,97273.51
2019-02-27T20:07:58.253Z,97273.17
2019-02-27T20:10:30.990Z,97275.21
2019-02-27T20:12:59.220Z,97272.98
2019-02-27T20:15:28.498Z,97270.82
2019-02-27T20:17:57.598Z,97259.91
2019-02-27T20:20:26.780Z,97265.58
2019-02-27T20:22:56.056Z,97257.50
2019-02-27T20:25:25.843Z,97265.26
2019-02-27T20:27:57.969Z,97258.59
2019-02-27T20:30:25.922Z,97252.23
2019-02-27T20:32:55.022Z,97250.89
2019-02-27T20:35:24.115Z,97257.78
2019-02-27T20:37:53.218Z,97242.50
2019-02-27T20:40:22.593Z,97250.61
2019-02-27T20:42:54.867Z,97246.37
2019-02-27T20:45:22.528Z,97243.53
2019-02-27T20:47:51.662Z,97234.55
2019-02-27T20:50:34.984Z,97244.34
2019-02-27T20:52:58.990Z,97234.36
2019-02-27T20:55:30.908Z,97232.78
2019-02-27T20:57:58.889Z,97226.27
2019-02-27T21:00:27.980Z,97228.31
2019-02-27T21:02:57.072Z,97226.67
2019-02-27T21:05:26.248Z,97221.84
2019-02-27T21:08:00.779Z,97227.98
2019-02-27T21:10:29.447Z,97224.19
2019-02-27T21:12:59.017Z,97219.74
2019-02-27T21:15:29.259Z,97218.73
2019-02-27T21:18:00.772Z,97221.20
2019-02-27T21:20:32.946Z,97212.06
2019-02-27T21:23:02.303Z,97220.56
2019-02-27T21:25:32.005Z,97211.92
2019-02-27T21:28:06.625Z,97207.92
2019-02-27T21:30:33.510Z,97207.62
2019-02-27T21:33:03.422Z,97208.17
2019-02-27T21:38:08.059Z,97196.93
2019-02-27T21:40:37.819Z,97196.30
2019-02-27T21:43:07.343Z,97197.00
2019-02-27T21:45:38.361Z,97195.44
2019-02-27T21:48:07.852Z,97188.98
2019-02-27T21:50:39.877Z,97193.97
2019-02-27T21:53:09.889Z,97194.45
2019-02-27T21:55:40.231Z,97194.69
2019-02-27T21:58:19.761Z,97194.20
2019-02-27T22:00:40.135Z,97194.28
2019-02-27T22:03:09.214Z,97189.55
2019-02-27T22:05:42.700Z,97191.23
2019-02-27T22:08:09.113Z,97190.72
2019-02-27T22:10:38.242Z,97195.23
2019-02-27T22:13:10.489Z,97186.46
2019-02-27T22:15:38.238Z,97187.02
2019-02-27T22:18:08.356Z,97189.55
2019-02-27T22:20:38.262Z,97184.52
2019-02-27T22:23:07.359Z,97179.52
2019-02-27T22:25:36.471Z,97176.84
2019-02-27T22:28:05.535Z,97171.05
2019-02-27T22:30:34.609Z,97174.45
2019-02-27T22:33:03.721Z,97172.00
2019-02-27T22:35:37.362Z,97173.16
2019-02-27T22:38:05.758Z,97169.53
2019-02-27T22:40:37.971Z,97170.13
2019-02-27T22:43:05.508Z,97167.69
2019-02-27T22:45:36.098Z,97164.10
2019-02-27T22:48:05.401Z,97160.68
2019-02-27T22:50:34.469Z,97164.16
2019-02-27T22:53:03.567Z,97162.22
2019-02-27T22:55:32.645Z,97154.36
2019-02-27T22:58:01.737Z,97162.23
2019-02-27T23:00:56.189Z,97162.14
2019-02-27T23:03:25.681Z,97163.91
2019-02-27T23:05:54.755Z,97159.17
2019-02-27T23:08:24.136Z,97150.48
2019-02-27T23:10:53.263Z,97154.27
2019-02-27T23:13:22.365Z,97151.43
2019-02-27T23:15:52.142Z,97156.27
2019-02-27T23:18:21.232Z,97156.71
2019-02-27T23:20:52.499Z,97157.91
2019-02-27T23:23:21.134Z,97152.30
2019-02-27T23:25:50.216Z,97146.67
2019-02-27T23:28:19.323Z,97151.86
2019-02-27T23:30:48.393Z,97145.22
2019-02-27T23:33:17.501Z,97145.96
2019-02-27T23:35:47.356Z,97137.06
2019-02-27T23:38:17.398Z,97134.40
2019-02-27T23:40:49.135Z,97136.53
2019-02-27T23:43:17.288Z,97133.17
2019-02-27T23:45:46.366Z,97127.37
2019-02-27T23:48:15.475Z,97124.58
2019-02-27T23:50:44.555Z,97120.05
2019-02-27T23:53:15.143Z,97117.73
2019-02-27T23:55:45.393Z,97115.95
2019-02-27T23:58:14.622Z,97113.98
